createdAt,value
2019-03-28T00:01:08.544Z,4.64
2019-03-28T00:03:39.148Z,4.50
2019-03-28T00:06:08.064Z,4.40
2019-03-28T00:08:36.851Z,4.27
2019-03-28T00:11:07.052Z,4.29
2019-03-28T00:13:37.595Z,4.90
2019-03-28T00:16:06.526Z,4.35
2019-03-28T00:18:38.894Z,4.27
2019-03-28T00:21:07.804Z,4.14
2019-03-28T00:23:42.449Z,4.74
2019-03-28T00:26:12.367Z,4.32
2019-03-28T00:28:43.105Z,4.36
2019-03-28T00:31:11.927Z,4.42
2019-03-28T00:36:20.541Z,4.47
2019-03-28T00:38:50.136Z,4.36
2019-03-28T00:41:20.987Z,4.26
2019-03-28T00:43:54.544Z,4.15
2019-03-28T00:46:24.276Z,4.17
2019-03-28T00:48:54.005Z,4.63
2019-03-28T00:51:25.284Z,4.07
2019-03-28T00:53:56.923Z,4.02
2019-03-28T00:56:27.653Z,4.04
2019-03-28T00:58:56.329Z,4.03
2019-03-28T01:01:25.036Z,4.13
2019-03-28T01:03:54.017Z,4.71
2019-03-28T01:06:29.247Z,4.95
2019-03-28T01:08:56.497Z,4.46
2019-03-28T01:11:27.066Z,4.73
2019-03-28T01:14:00.529Z,4.69
2019-03-28T01:19:27.051Z,4.17
2019-03-28T01:21:57.185Z,4.15
2019-03-28T01:24:31.136Z,4.11
2019-03-28T01:27:00.201Z,4.79
2019-03-28T01:29:30.427Z,4.31
2019-03-28T01:32:02.512Z,4.97
2019-03-28T01:34:35.993Z,4.36
2019-03-28T01:37:03.133Z,4.11
2019-03-28T01:39:33.034Z,3.95
2019-03-28T01:42:11.875Z,4.42
2019-03-28T01:47:26.960Z,3.98
2019-03-28T01:50:00.717Z,4.07
2019-03-28T01:52:33.899Z,4.66
2019-03-28T01:55:02.933Z,4.05
2019-03-28T01:57:34.611Z,3.88
2019-03-28T02:00:03.992Z,4.58
2019-03-28T02:02:35.440Z,3.96
2019-03-28T02:05:06.478Z,4.61
2019-03-28T02:07:39.564Z,4.83
2019-03-28T02:10:10.053Z,4.93
2019-03-28T02:12:40.879Z,4.18
2019-03-28T02:15:12.083Z,4.01
2019-03-28T02:17:43.854Z,3.92
2019-03-28T02:20:12.746Z,4.03
2019-03-28T02:22:42.680Z,4.71
2019-03-28T02:25:14.674Z,4.20
2019-03-28T02:27:52.122Z,4.13
2019-03-28T02:30:34.604Z,4.01
2019-03-28T02:33:04.629Z,3.83
2019-03-28T02:35:36.489Z,4.34
2019-03-28T02:38:07.693Z,3.87
2019-03-28T02:40:42.905Z,4.40
2019-03-28T02:43:14.217Z,3.90
2019-03-28T02:45:47.349Z,3.95
2019-03-28T02:48:17.593Z,4.57
2019-03-28T02:50:49.504Z,4.14
2019-03-28T02:53:21.469Z,3.98
2019-03-28T02:55:50.530Z,3.71
2019-03-28T02:58:20.853Z,3.64
2019-03-28T03:00:52.645Z,4.17
2019-03-28T03:03:26.034Z,3.33
2019-03-28T03:06:00.145Z,3.08
2019-03-28T03:08:34.929Z,3.12
2019-03-28T03:11:03.818Z,2.85
2019-03-28T03:13:37.222Z,2.81
2019-03-28T03:16:10.078Z,2.82
2019-03-28T03:18:39.199Z,2.88
2019-03-28T03:21:10.074Z,2.68
2019-03-28T03:23:43.581Z,2.80
2019-03-28T03:26:13.410Z,2.62
2019-03-28T03:28:44.697Z,2.53
2019-03-28T03:31:20.867Z,2.37
2019-03-28T03:33:49.506Z,2.98
2019-03-28T03:36:19.094Z,2.56
2019-03-28T03:38:52.033Z,2.57
2019-03-28T03:41:27.647Z,2.53
2019-03-28T03:43:59.406Z,2.46
2019-03-28T03:46:30.390Z,2.71
2019-03-28T03:49:00.322Z,2.87
2019-03-28T03:51:31.272Z,3.31
2019-03-28T03:54:06.188Z,3.58
2019-03-28T03:59:16.578Z,3.05
2019-03-28T04:01:50.409Z,3.08
2019-03-28T04:04:26.394Z,3.18
2019-03-28T04:06:57.394Z,3.07
2019-03-28T04:09:27.708Z,2.79
2019-03-28T04:12:01.701Z,2.63
2019-03-28T04:14:34.732Z,3.14
2019-03-28T04:17:05.754Z,3.53
2019-03-28T04:19:37.361Z,3.54
2019-03-28T04:22:07.419Z,2.89
2019-03-28T04:24:43.103Z,2.71
2019-03-28T04:27:15.814Z,2.82
2019-03-28T04:29:46.353Z,2.63
2019-03-28T04:32:23.123Z,2.96
2019-03-28T04:34:54.481Z,2.27
2019-03-28T04:37:24.705Z,2.23
2019-03-28T04:42:46.011Z,2.13
2019-03-28T04:45:18.737Z,2.11
2019-03-28T04:47:46.909Z,2.01
2019-03-28T04:50:22.843Z,2.11
2019-03-28T04:52:56.973Z,1.96
2019-03-28T04:55:26.506Z,2.39
2019-03-28T04:57:57.414Z,2.47
2019-03-28T05:00:31.230Z,2.07
2019-03-28T05:03:01.450Z,1.90
2019-03-28T05:05:39.865Z,1.85
2019-03-28T05:08:13.030Z,1.62
2019-03-28T05:10:43.900Z,1.63
2019-03-28T05:13:15.738Z,1.61
2019-03-28T05:15:49.403Z,1.79
2019-03-28T05:18:21.217Z,1.79
2019-03-28T05:20:55.734Z,1.98
2019-03-28T05:23:27.081Z,2.20
2019-03-28T05:25:59.505Z,2.27
2019-03-28T05:28:29.449Z,2.33
2019-03-28T05:31:00.194Z,2.36
2019-03-28T05:36:12.935Z,2.42
2019-03-28T05:38:44.887Z,2.64
2019-03-28T05:41:12.710Z,2.62
2019-03-28T05:43:40.546Z,2.96
2019-03-28T05:46:08.427Z,2.79
2019-03-28T05:48:36.303Z,2.77
2019-03-28T05:51:04.258Z,2.96
2019-03-28T05:53:32.119Z,3.15
2019-03-28T05:56:00.006Z,3.27
2019-03-28T05:58:27.873Z,3.39
2019-03-28T06:00:55.806Z,3.44
2019-03-28T06:03:37.741Z,3.58
2019-03-28T06:06:05.610Z,3.63
2019-03-28T06:08:33.454Z,3.80
2019-03-28T06:11:01.334Z,4.11
2019-03-28T06:13:29.198Z,4.17
2019-03-28T06:15:57.071Z,4.41
2019-03-28T06:18:24.919Z,4.20
2019-03-28T06:20:52.799Z,4.20
2019-03-28T06:23:20.650Z,4.28
2019-03-28T06:25:49.533Z,4.34
2019-03-28T06:28:16.382Z,4.46
2019-03-28T06:30:44.505Z,4.55
2019-03-28T06:33:12.113Z,4.55
2019-03-28T06:35:40.002Z,4.73
2019-03-28T06:38:07.850Z,4.75
2019-03-28T06:40:35.680Z,4.87
2019-03-28T06:43:03.454Z,4.94
2019-03-28T06:45:31.278Z,4.97
2019-03-28T06:47:59.142Z,5.01
2019-03-28T06:50:26.962Z,5.16
2019-03-28T06:52:54.736Z,5.19
2019-03-28T06:55:24.050Z,5.55
2019-03-28T06:57:50.378Z,5.69
2019-03-28T07:00:18.166Z,5.93
2019-03-28T07:02:45.954Z,5.78
2019-03-28T07:05:13.734Z,5.87
2019-03-28T07:07:41.534Z,6.13
2019-03-28T07:10:09.329Z,6.25
2019-03-28T07:12:37.124Z,6.29
2019-03-28T07:15:05.243Z,6.35
2019-03-28T07:17:33.057Z,6.41
2019-03-28T07:20:00.857Z,6.55
2019-03-28T07:22:28.666Z,6.65
2019-03-28T07:24:56.473Z,6.68
2019-03-28T07:27:24.291Z,6.68
2019-03-28T07:29:53.101Z,6.81
2019-03-28T07:32:19.870Z,6.95
2019-03-28T07:34:47.650Z,7.00
2019-03-28T07:37:15.639Z,7.03
2019-03-28T07:39:43.435Z,7.28
2019-03-28T07:42:11.256Z,7.50
2019-03-28T07:44:39.034Z,7.58
2019-03-28T07:47:06.889Z,7.62
2019-03-28T07:49:37.453Z,7.65
2019-03-28T07:52:02.542Z,7.94
2019-03-28T07:54:30.327Z,8.03
2019-03-28T07:56:58.135Z,8.13
2019-03-28T07:59:25.947Z,8.14
2019-03-28T08:01:53.742Z,8.15
2019-03-28T08:04:21.536Z,8.18
2019-03-28T08:06:50.421Z,8.23
2019-03-28T08:09:17.633Z,8.30
2019-03-28T08:11:48.078Z,8.43
2019-03-28T08:14:12.713Z,8.50
2019-03-28T08:16:40.539Z,8.59
2019-03-28T08:19:08.430Z,8.72
2019-03-28T08:21:36.203Z,8.82
2019-03-28T08:24:04.023Z,8.93
2019-03-28T08:26:31.818Z,9.17
2019-03-28T08:28:59.614Z,9.31
2019-03-28T08:31:27.398Z,9.43
2019-03-28T08:33:55.218Z,9.58
2019-03-28T08:36:23.002Z,9.53
2019-03-28T08:38:50.803Z,9.53
2019-03-28T08:41:19.661Z,9.90
2019-03-28T08:43:46.433Z,9.88
2019-03-28T08:46:14.215Z,9.95
2019-03-28T08:48:42.010Z,9.93
2019-03-28T08:51:09.814Z,9.81
2019-03-28T08:53:37.642Z,10.23
2019-03-28T08:56:05.461Z,10.12
2019-03-28T08:58:33.278Z,10.60
2019-03-28T09:01:01.065Z,10.84
2019-03-28T09:03:28.872Z,10.91
2019-03-28T09:05:56.691Z,11.04
2019-03-28T09:08:24.458Z,11.14
2019-03-28T09:10:52.250Z,11.66
2019-03-28T09:13:20.038Z,11.99
2019-03-28T09:15:47.826Z,12.01
2019-03-28T09:18:15.634Z,11.90
2019-03-28T09:20:43.426Z,11.89
2019-03-28T09:23:11.241Z,11.92
2019-03-28T09:25:39.010Z,11.87
2019-03-28T09:28:06.810Z,12.39
2019-03-28T09:30:47.891Z,12.39
2019-03-28T09:33:04.877Z,12.28
2019-03-28T09:35:32.673Z,12.61
2019-03-28T09:38:00.443Z,12.35
2019-03-28T09:40:28.222Z,12.67
2019-03-28T09:42:56.022Z,12.99
2019-03-28T09:45:23.847Z,13.17
2019-03-28T09:47:51.642Z,13.04
2019-03-28T09:50:19.434Z,13.15
2019-03-28T09:52:47.218Z,13.35
2019-03-28T09:55:15.015Z,13.77
2019-03-28T09:57:42.799Z,13.57
2019-03-28T10:00:10.878Z,13.39
2019-03-28T10:02:38.694Z,13.13
2019-03-28T10:05:06.538Z,13.32
2019-03-28T10:07:34.318Z,13.48
2019-03-28T10:10:02.989Z,14.00
2019-03-28T10:12:29.907Z,14.17
2019-03-28T10:14:57.706Z,14.01
2019-03-28T10:17:25.499Z,13.72
2019-03-28T10:19:53.294Z,13.68
2019-03-28T10:22:22.374Z,13.58
2019-03-28T10:24:48.899Z,13.88
2019-03-28T10:27:19.146Z,13.99
2019-03-28T10:29:44.504Z,14.00
2019-03-28T10:32:12.291Z,14.15
2019-03-28T10:34:40.146Z,14.33
2019-03-28T10:37:07.879Z,13.84
2019-03-28T10:39:35.674Z,13.86
2019-03-28T10:42:03.502Z,13.78
2019-03-28T10:44:31.302Z,13.99
2019-03-28T10:46:59.086Z,14.08
2019-03-28T10:49:26.883Z,14.07
2019-03-28T10:51:54.668Z,13.82
2019-03-28T10:54:25.579Z,13.86
2019-03-28T10:56:52.436Z,14.04
2019-03-28T10:59:23.445Z,13.94
2019-03-28T11:01:50.693Z,13.94
2019-03-28T11:04:13.701Z,14.07
2019-03-28T11:06:41.494Z,14.24
2019-03-28T11:09:09.298Z,14.15
2019-03-28T11:11:37.077Z,14.04
2019-03-28T11:14:04.874Z,14.04
2019-03-28T11:16:32.659Z,13.87
2019-03-28T11:19:00.454Z,14.20
2019-03-28T11:21:28.285Z,13.99
2019-03-28T11:23:56.085Z,14.00
2019-03-28T11:26:23.906Z,14.31
2019-03-28T11:28:51.701Z,14.05
2019-03-28T11:31:19.482Z,14.46
2019-03-28T11:33:47.634Z,14.42
2019-03-28T11:36:15.073Z,14.42
2019-03-28T11:38:42.874Z,14.16
2019-03-28T11:41:10.650Z,14.61
2019-03-28T11:43:38.454Z,14.57
2019-03-28T11:46:06.262Z,14.89
2019-03-28T11:48:34.042Z,14.72
2019-03-28T11:51:01.834Z,14.96
2019-03-28T11:53:29.638Z,15.05
2019-03-28T11:55:57.459Z,15.08
2019-03-28T11:58:25.233Z,14.96
2019-03-28T12:00:53.046Z,15.01
2019-03-28T12:03:20.827Z,14.72
2019-03-28T12:05:48.668Z,14.95
2019-03-28T12:08:16.463Z,14.82
2019-03-28T12:10:44.271Z,14.77
2019-03-28T12:13:12.051Z,15.06
2019-03-28T12:15:39.850Z,14.89
2019-03-28T12:18:07.629Z,14.88
2019-03-28T12:20:35.433Z,15.18
2019-03-28T12:23:03.302Z,15.13
2019-03-28T12:25:31.104Z,15.25
2019-03-28T12:28:00.358Z,15.28
2019-03-28T12:30:26.708Z,15.17
2019-03-28T12:32:54.482Z,15.00
2019-03-28T12:35:22.292Z,15.23
2019-03-28T12:37:50.078Z,15.34
2019-03-28T12:40:17.870Z,15.45
2019-03-28T12:42:45.665Z,15.17
2019-03-28T12:45:13.482Z,15.40
2019-03-28T12:47:43.052Z,15.56
2019-03-28T12:50:09.142Z,15.35
2019-03-28T12:52:36.925Z,15.26
2019-03-28T12:55:04.983Z,15.29
2019-03-28T12:57:32.773Z,15.35
2019-03-28T13:00:00.637Z,15.45
2019-03-28T13:02:31.791Z,15.80
2019-03-28T13:04:56.222Z,16.00
2019-03-28T13:07:24.017Z,15.96
2019-03-28T13:09:51.818Z,15.64
2019-03-28T13:12:19.597Z,15.64
2019-03-28T13:14:47.800Z,15.98
2019-03-28T13:17:15.206Z,15.67
2019-03-28T13:19:43.001Z,15.71
2019-03-28T13:22:10.789Z,15.80
2019-03-28T13:24:38.595Z,16.07
2019-03-28T13:27:06.383Z,15.93
2019-03-28T13:29:34.198Z,16.11
2019-03-28T13:32:02.005Z,16.12
2019-03-28T13:34:29.786Z,16.19
2019-03-28T13:36:57.586Z,16.29
2019-03-28T13:39:25.381Z,16.25
2019-03-28T13:41:53.190Z,16.58
2019-03-28T13:44:20.986Z,16.75
2019-03-28T13:46:48.802Z,16.58
2019-03-28T13:49:17.274Z,16.52
2019-03-28T13:51:45.078Z,16.58
2019-03-28T13:54:12.918Z,16.72
2019-03-28T13:56:40.731Z,16.88
2019-03-28T13:59:08.509Z,16.46
2019-03-28T14:01:37.128Z,16.50
2019-03-28T14:04:04.914Z,16.63
2019-03-28T14:06:32.813Z,16.85
2019-03-28T14:09:00.602Z,17.04
2019-03-28T14:11:28.407Z,16.91
2019-03-28T14:13:56.198Z,16.67
2019-03-28T14:16:23.998Z,16.43
2019-03-28T14:18:51.778Z,16.30
2019-03-28T14:21:19.578Z,16.32
2019-03-28T14:23:47.372Z,16.16
2019-03-28T14:26:15.154Z,16.01
2019-03-28T14:28:42.963Z,15.67
2019-03-28T14:31:10.850Z,15.61
2019-03-28T14:33:38.682Z,15.51
2019-03-28T14:36:06.489Z,15.58
2019-03-28T14:38:37.276Z,15.58
2019-03-28T14:41:02.150Z,15.81
2019-03-28T14:43:29.989Z,15.78
2019-03-28T14:45:57.827Z,15.67
2019-03-28T14:48:25.724Z,15.66
2019-03-28T14:50:53.669Z,15.69
2019-03-28T14:53:22.364Z,15.73
2019-03-28T14:55:49.151Z,15.68
2019-03-28T14:58:16.917Z,15.64
2019-03-28T15:00:49.029Z,15.76
2019-03-28T15:03:25.621Z,15.83
2019-03-28T15:05:44.629Z,15.80
2019-03-28T15:08:12.434Z,15.86
2019-03-28T15:10:40.258Z,15.86
2019-03-28T15:13:08.043Z,15.91
2019-03-28T15:15:35.832Z,15.97
2019-03-28T15:18:03.938Z,15.90
2019-03-28T15:20:31.454Z,15.89
2019-03-28T15:22:59.237Z,15.83
2019-03-28T15:25:27.030Z,15.71
2019-03-28T15:27:57.963Z,15.40
2019-03-28T15:30:25.766Z,15.45
2019-03-28T15:32:53.557Z,15.41
2019-03-28T15:35:21.366Z,15.31
2019-03-28T15:37:49.177Z,15.23
2019-03-28T15:40:16.985Z,15.27
2019-03-28T15:42:44.772Z,15.23
2019-03-28T15:45:12.586Z,15.35
2019-03-28T15:47:40.386Z,15.30
2019-03-28T15:50:08.220Z,15.31
2019-03-28T15:52:35.994Z,15.37
2019-03-28T15:55:03.899Z,15.33
2019-03-28T15:57:31.706Z,15.31
2019-03-28T15:59:59.505Z,15.44
2019-03-28T16:02:27.329Z,15.50
2019-03-28T16:04:55.122Z,15.55
2019-03-28T16:07:22.907Z,15.61
2019-03-28T16:09:50.706Z,15.53
2019-03-28T16:12:18.493Z,15.61
2019-03-28T16:14:46.286Z,15.53
2019-03-28T16:17:14.062Z,15.63
2019-03-28T16:19:45.010Z,15.45
2019-03-28T16:22:09.681Z,15.39
2019-03-28T16:24:37.483Z,15.42
2019-03-28T16:27:05.271Z,15.43
2019-03-28T16:29:33.794Z,15.42
2019-03-28T16:32:00.894Z,15.43
2019-03-28T16:34:28.744Z,15.43
2019-03-28T16:36:56.522Z,15.54
2019-03-28T16:39:24.307Z,15.59
2019-03-28T16:41:52.113Z,15.54
2019-03-28T16:44:19.902Z,15.65
2019-03-28T16:46:47.701Z,15.71
2019-03-28T16:49:15.490Z,15.45
2019-03-28T16:51:43.684Z,15.27
2019-03-28T16:54:11.118Z,15.22
2019-03-28T16:56:38.927Z,15.27
2019-03-28T16:59:06.720Z,14.94
2019-03-28T17:01:34.604Z,15.14
2019-03-28T17:04:02.444Z,14.92
2019-03-28T17:06:30.322Z,14.96
2019-03-28T17:08:58.107Z,14.85
2019-03-28T17:11:25.915Z,14.87
2019-03-28T17:13:53.706Z,14.78
2019-03-28T17:16:21.551Z,14.66
2019-03-28T17:18:49.335Z,14.66
2019-03-28T17:21:17.213Z,14.69
2019-03-28T17:23:44.990Z,14.60
2019-03-28T17:26:12.822Z,14.43
2019-03-28T17:28:40.610Z,14.58
2019-03-28T17:31:08.410Z,14.18
2019-03-28T17:33:36.192Z,14.26
2019-03-28T17:36:04.011Z,14.22
2019-03-28T17:38:31.789Z,14.19
2019-03-28T17:40:59.612Z,14.03
2019-03-28T17:43:27.394Z,13.84
2019-03-28T17:45:55.194Z,13.77
2019-03-28T17:48:22.982Z,13.79
2019-03-28T17:50:50.788Z,13.63
2019-03-28T17:53:19.549Z,13.56
2019-03-28T17:55:46.373Z,13.81
2019-03-28T17:58:14.151Z,13.55
2019-03-28T18:00:42.798Z,13.47
2019-03-28T18:03:10.582Z,13.46
2019-03-28T18:05:40.669Z,13.37
2019-03-28T18:08:06.186Z,13.37
2019-03-28T18:10:33.966Z,13.25
2019-03-28T18:13:01.765Z,13.18
2019-03-28T18:15:29.542Z,13.10
2019-03-28T18:17:57.346Z,12.97
2019-03-28T18:20:25.133Z,12.93
2019-03-28T18:22:52.942Z,12.87
2019-03-28T18:25:20.722Z,12.69
2019-03-28T18:27:48.538Z,12.88
2019-03-28T18:30:16.345Z,12.84
2019-03-28T18:32:44.861Z,12.64
2019-03-28T18:35:11.950Z,12.50
2019-03-28T18:37:39.766Z,12.42
2019-03-28T18:40:07.589Z,12.29
2019-03-28T18:42:35.400Z,12.32
2019-03-28T18:45:03.270Z,12.42
2019-03-28T18:47:31.075Z,12.35
2019-03-28T18:49:58.863Z,12.27
2019-03-28T18:52:26.763Z,12.20
2019-03-28T18:54:54.546Z,12.24
2019-03-28T18:57:22.371Z,12.26
2019-03-28T18:59:50.230Z,12.40
2019-03-28T19:02:18.040Z,12.40
2019-03-28T19:04:45.864Z,12.48
2019-03-28T19:07:13.662Z,12.45
2019-03-28T19:09:41.626Z,12.35
2019-03-28T19:12:09.426Z,12.25
2019-03-28T19:14:37.214Z,12.28
2019-03-28T19:17:05.546Z,12.28
2019-03-28T19:19:39.195Z,12.53
2019-03-28T19:22:01.154Z,12.16
2019-03-28T19:24:28.934Z,12.07
2019-03-28T19:26:56.730Z,12.03
2019-03-28T19:29:24.512Z,12.02
2019-03-28T19:31:52.306Z,12.00
2019-03-28T19:34:20.091Z,11.81
2019-03-28T19:36:47.886Z,11.77
2019-03-28T19:39:17.566Z,11.72
2019-03-28T19:41:45.378Z,11.46
2019-03-28T19:44:13.157Z,11.49
2019-03-28T19:46:40.926Z,11.47
2019-03-28T19:49:08.746Z,11.46
2019-03-28T19:51:36.539Z,11.41
2019-03-28T19:54:04.354Z,11.38
2019-03-28T19:56:32.109Z,11.39
2019-03-28T19:58:59.965Z,11.32
2019-03-28T20:01:27.738Z,11.18
2019-03-28T20:03:55.595Z,11.20
2019-03-28T20:06:24.285Z,11.24
2019-03-28T20:08:51.179Z,11.34
2019-03-28T20:11:18.984Z,11.20
2019-03-28T20:13:46.762Z,11.18
2019-03-28T20:16:14.594Z,11.12
2019-03-28T20:18:43.178Z,11.07
2019-03-28T20:21:10.166Z,11.05
2019-03-28T20:23:37.966Z,10.88
2019-03-28T20:26:05.757Z,10.85
2019-03-28T20:28:33.591Z,10.92
2019-03-28T20:31:01.487Z,11.18
2019-03-28T20:33:29.278Z,10.84
2019-03-28T20:36:12.032Z,10.83
2019-03-28T20:38:24.858Z,10.79
2019-03-28T20:40:52.642Z,10.80
2019-03-28T20:43:20.448Z,10.84
2019-03-28T20:45:48.247Z,10.75
2019-03-28T20:48:16.951Z,10.76
2019-03-28T20:50:43.874Z,10.59
2019-03-28T20:53:12.013Z,10.65
2019-03-28T20:55:39.564Z,10.66
2019-03-28T20:58:07.384Z,10.91
2019-03-28T21:00:39.064Z,10.51
2019-03-28T21:03:06.322Z,10.45
2019-03-28T21:05:34.110Z,10.42
2019-03-28T21:08:01.925Z,10.23
2019-03-28T21:10:33.141Z,10.33
2019-03-28T21:12:57.602Z,10.26
2019-03-28T21:15:25.378Z,10.27
2019-03-28T21:17:53.185Z,10.04
2019-03-28T21:20:20.962Z,9.90
2019-03-28T21:22:48.838Z,10.04
2019-03-28T21:25:16.628Z,9.86
2019-03-28T21:27:44.443Z,10.40
2019-03-28T21:30:12.228Z,9.97
2019-03-28T21:32:40.062Z,9.47
2019-03-28T21:35:07.886Z,9.89
2019-03-28T21:37:35.690Z,9.44
2019-03-28T21:40:03.525Z,9.37
2019-03-28T21:42:31.303Z,9.40
2019-03-28T21:44:59.116Z,9.75
2019-03-28T21:47:26.914Z,9.47
2019-03-28T21:49:54.685Z,9.39
2019-03-28T21:52:22.489Z,9.29
2019-03-28T21:54:50.788Z,9.18
2019-03-28T21:57:18.079Z,8.86
2019-03-28T21:59:45.881Z,8.55
2019-03-28T22:02:13.683Z,8.33
2019-03-28T22:04:41.464Z,8.41
2019-03-28T22:07:09.273Z,8.53
2019-03-28T22:09:39.611Z,8.75
2019-03-28T22:12:04.901Z,8.75
2019-03-28T22:14:32.678Z,8.99
2019-03-28T22:17:00.479Z,9.04
2019-03-28T22:19:28.282Z,8.80
2019-03-28T22:21:56.207Z,8.68
2019-03-28T22:24:23.901Z,8.19
2019-03-28T22:26:51.733Z,7.95
2019-03-28T22:29:20.748Z,7.81
2019-03-28T22:31:47.485Z,7.81
2019-03-28T22:34:15.290Z,7.86
2019-03-28T22:36:56.205Z,7.90
2019-03-28T22:39:10.887Z,8.13
2019-03-28T22:41:38.666Z,8.11
2019-03-28T22:44:06.613Z,8.14
2019-03-28T22:46:34.401Z,8.18
2019-03-28T22:49:02.194Z,8.05
2019-03-28T22:51:31.703Z,8.01
2019-03-28T22:53:57.766Z,8.20
2019-03-28T22:56:25.557Z,8.34
2019-03-28T22:58:53.391Z,8.26
2019-03-28T23:01:21.177Z,7.96
2019-03-28T23:03:48.982Z,7.92
2019-03-28T23:06:16.763Z,7.81
2019-03-28T23:08:44.577Z,7.85
2019-03-28T23:11:12.365Z,8.20
2019-03-28T23:13:40.181Z,8.17
2019-03-28T23:16:07.973Z,8.27
2019-03-28T23:18:35.786Z,8.24
2019-03-28T23:21:03.591Z,8.29
2019-03-28T23:23:31.517Z,8.20
2019-03-28T23:25:59.307Z,7.95
2019-03-28T23:28:27.110Z,7.96
2019-03-28T23:30:54.958Z,8.01
2019-03-28T23:33:22.736Z,8.16
2019-03-28T23:35:50.513Z,8.48
2019-03-28T23:38:18.318Z,8.48
2019-03-28T23:40:46.109Z,8.46
2019-03-28T23:43:13.918Z,8.66
2019-03-28T23:45:41.697Z,8.59
2019-03-28T23:48:09.778Z,8.58
2019-03-28T23:50:37.558Z,8.58
2019-03-28T23:53:05.399Z,8.63
2019-03-28T23:55:33.182Z,8.64
2019-03-28T23:58:00.975Z,8.19
